createdAt,value
2018-12-20T00:02:05.304Z,95544.93
2018-12-20T00:04:39.980Z,95543.65
2018-12-20T00:07:15.228Z,95556.75
2018-12-20T00:09:50.862Z,95557.02
2018-12-20T00:12:25.714Z,95546.53
2018-12-20T00:15:00.691Z,95541.73
2018-12-20T00:17:41.118Z,95531.60
2018-12-20T00:20:16.671Z,95534.53
2018-12-20T00:22:51.440Z,95537.64
2018-12-20T00:25:26.532Z,95534.91
2018-12-20T00:28:01.741Z,95536.47
2018-12-20T00:30:37.137Z,95542.27
2018-12-20T00:33:12.481Z,95537.20
2018-12-20T00:35:47.075Z,95539.03
2018-12-20T00:38:21.746Z,95541.70
2018-12-20T00:40:56.373Z,95547.20
2018-12-20T00:43:31.692Z,95550.34
2018-12-20T00:46:06.756Z,95553.52
2018-12-20T00:48:41.284Z,95562.29
2018-12-20T00:51:16.718Z,95566.88
2018-12-20T00:53:51.520Z,95562.49
2018-12-20T00:56:26.851Z,95570.33
2018-12-20T00:59:01.390Z,95572.42
2018-12-20T01:01:36.399Z,95575.66
2018-12-20T01:04:11.987Z,95581.77
2018-12-20T01:06:46.558Z,95580.72
2018-12-20T01:09:21.595Z,95592.27
2018-12-20T01:11:56.008Z,95593.08
2018-12-20T01:14:30.917Z,95587.20
2018-12-20T01:17:05.803Z,95586.33
2018-12-20T01:19:40.488Z,95586.13
2018-12-20T01:22:16.330Z,95594.94
2018-12-20T01:24:51.047Z,95594.13
2018-12-20T01:27:25.695Z,95598.46
2018-12-20T01:30:00.746Z,95602.41
2018-12-20T01:32:35.175Z,95602.17
2018-12-20T01:35:10.331Z,95605.34
2018-12-20T01:37:44.871Z,95598.86
2018-12-20T01:40:19.933Z,95603.66
2018-12-20T01:42:54.639Z,95598.83
2018-12-20T01:45:29.505Z,95596.36
2018-12-20T01:48:04.667Z,95597.62
2018-12-20T01:50:39.644Z,95592.85
2018-12-20T01:53:14.676Z,95590.98
2018-12-20T01:55:49.468Z,95594.00
2018-12-20T01:58:24.640Z,95587.24
2018-12-20T02:00:59.831Z,95593.45
2018-12-20T02:03:34.427Z,95596.91
2018-12-20T02:06:09.610Z,95593.16
2018-12-20T02:08:44.150Z,95592.01
2018-12-20T02:11:18.835Z,95593.00
2018-12-20T02:13:53.483Z,95594.28
2018-12-20T02:16:28.993Z,95592.19
2018-12-20T02:19:04.243Z,95592.19
2018-12-20T02:21:39.929Z,95590.25
2018-12-20T02:24:14.810Z,95585.23
2018-12-20T02:26:50.408Z,95586.05
2018-12-20T02:29:26.524Z,95592.33
2018-12-20T02:32:01.488Z,95592.67
2018-12-20T02:34:36.418Z,95593.48
2018-12-20T02:37:11.649Z,95589.23
2018-12-20T02:39:46.890Z,95593.63
2018-12-20T02:42:21.459Z,95588.55
2018-12-20T02:44:56.135Z,95592.95
2018-12-20T02:47:30.942Z,95592.12
2018-12-20T02:50:06.126Z,95599.64
2018-12-20T02:52:40.860Z,95593.41
2018-12-20T02:55:16.005Z,95597.46
2018-12-20T02:57:50.904Z,95600.51
2018-12-20T03:00:26.423Z,95600.98
2018-12-20T03:03:01.553Z,95597.33
2018-12-20T03:05:36.678Z,95595.63
2018-12-20T03:08:12.004Z,95602.33
2018-12-20T03:10:46.756Z,95601.18
2018-12-20T03:13:21.648Z,95610.31
2018-12-20T03:15:56.822Z,95607.12
2018-12-20T03:18:31.586Z,95610.80
2018-12-20T03:21:06.442Z,95612.22
2018-12-20T03:23:41.554Z,95605.56
2018-12-20T03:26:17.695Z,95601.52
2018-12-20T03:28:52.199Z,95600.56
2018-12-20T03:31:27.783Z,95610.80
2018-12-20T03:34:03.454Z,95611.23
2018-12-20T03:36:38.752Z,95605.70
2018-12-20T03:39:13.774Z,95612.09
2018-12-20T03:41:48.656Z,95607.09
2018-12-20T03:44:23.279Z,95607.95
2018-12-20T03:46:58.833Z,95603.70
2018-12-20T03:49:33.638Z,95601.05
2018-12-20T03:52:09.443Z,95611.47
2018-12-20T03:54:44.493Z,95608.98
2018-12-20T03:57:19.589Z,95611.42
2018-12-20T03:59:54.822Z,95606.67
2018-12-20T04:02:30.179Z,95613.28
2018-12-20T04:05:05.489Z,95613.04
2018-12-20T04:07:40.528Z,95615.09
2018-12-20T04:10:15.532Z,95610.53
2018-12-20T04:12:50.370Z,95615.14
2018-12-20T04:15:25.601Z,95615.62
2018-12-20T04:18:00.806Z,95611.23
2018-12-20T04:20:35.596Z,95613.58
2018-12-20T04:23:10.999Z,95612.77
2018-12-20T04:25:45.890Z,95617.38
2018-12-20T04:28:20.627Z,95625.19
2018-12-20T04:30:55.549Z,95613.75
2018-12-20T04:33:30.369Z,95620.42
2018-12-20T04:36:05.621Z,95619.84
2018-12-20T04:38:40.705Z,95620.63
2018-12-20T04:41:16.575Z,95625.95
2018-12-20T04:43:51.904Z,95624.67
2018-12-20T04:46:27.490Z,95626.58
2018-12-20T04:49:02.690Z,95631.72
2018-12-20T04:51:37.666Z,95628.33
2018-12-20T04:54:13.051Z,95630.18
2018-12-20T04:56:48.306Z,95630.70
2018-12-20T04:59:23.511Z,95632.14
2018-12-20T05:01:58.697Z,95638.56
2018-12-20T05:04:33.663Z,95640.58
2018-12-20T05:07:08.940Z,95638.14
2018-12-20T05:09:43.719Z,95638.14
2018-12-20T05:12:20.710Z,95636.80
2018-12-20T05:14:55.845Z,95641.66
2018-12-20T05:17:31.254Z,95640.23
2018-12-20T05:20:07.596Z,95649.38
2018-12-20T05:22:42.631Z,95652.09
2018-12-20T05:25:17.535Z,95650.53
2018-12-20T05:27:52.315Z,95651.05
2018-12-20T05:30:27.163Z,95647.81
2018-12-20T05:33:02.877Z,95655.86
2018-12-20T05:35:38.299Z,95659.38
2018-12-20T05:38:13.756Z,95659.16
2018-12-20T05:40:48.810Z,95658.43
2018-12-20T05:43:24.034Z,95661.48
2018-12-20T05:46:04.533Z,95657.63
2018-12-20T05:48:36.135Z,95656.19
2018-12-20T05:51:11.239Z,95662.20
2018-12-20T05:53:45.815Z,95664.77
2018-12-20T05:56:20.928Z,95666.00
2018-12-20T05:58:55.895Z,95667.62
2018-12-20T06:01:30.419Z,95672.67
2018-12-20T06:04:06.372Z,95678.86
2018-12-20T06:06:41.206Z,95677.11
2018-12-20T06:09:16.192Z,95674.45
2018-12-20T06:11:51.002Z,95682.30
2018-12-20T06:14:25.960Z,95684.88
2018-12-20T06:17:02.769Z,95690.49
2018-12-20T06:19:37.636Z,95689.88
2018-12-20T06:22:12.982Z,95687.31
2018-12-20T06:24:47.697Z,95685.69
2018-12-20T06:27:22.087Z,95696.34
2018-12-20T06:29:57.226Z,95691.12
2018-12-20T06:32:31.715Z,95688.88
2018-12-20T06:35:06.821Z,95696.73
2018-12-20T06:37:41.446Z,95703.17
2018-12-20T06:40:16.498Z,95697.35
2018-12-20T06:42:51.252Z,95707.16
2018-12-20T06:45:25.795Z,95711.16
2018-12-20T06:48:00.419Z,95718.77
2018-12-20T06:50:35.530Z,95715.25
2018-12-20T06:53:10.548Z,95716.10
2018-12-20T06:55:44.994Z,95718.29
2018-12-20T06:58:19.571Z,95725.78
2018-12-20T07:00:54.083Z,95730.06
2018-12-20T07:03:28.723Z,95732.34
2018-12-20T07:06:03.806Z,95734.13
2018-12-20T07:08:38.203Z,95733.22
2018-12-20T07:11:13.354Z,95727.41
2018-12-20T07:13:47.792Z,95729.98
2018-12-20T07:16:29.146Z,95726.57
2018-12-20T07:18:58.823Z,95734.13
2018-12-20T07:21:33.352Z,95730.71
2018-12-20T07:24:08.061Z,95727.80
2018-12-20T07:26:42.470Z,95730.17
2018-12-20T07:29:16.831Z,95736.36
2018-12-20T07:31:51.971Z,95739.06
2018-12-20T07:34:27.012Z,95735.33
2018-12-20T07:37:01.358Z,95739.86
2018-12-20T07:39:38.563Z,95736.35
2018-12-20T07:42:12.875Z,95738.92
2018-12-20T07:44:47.392Z,95730.60
2018-12-20T07:47:22.211Z,95734.18
2018-12-20T07:49:56.982Z,95734.32
2018-12-20T07:52:31.559Z,95736.43
2018-12-20T07:55:07.018Z,95740.29
2018-12-20T07:57:41.747Z,95740.34
2018-12-20T08:00:16.426Z,95749.02
2018-12-20T08:02:51.359Z,95747.70
2018-12-20T08:05:26.686Z,95744.19
2018-12-20T08:08:01.633Z,95752.45
2018-12-20T08:10:36.102Z,95753.55
2018-12-20T08:13:10.814Z,95758.33
2018-12-20T08:15:45.430Z,95754.76
2018-12-20T08:18:20.369Z,95759.55
2018-12-20T08:20:56.314Z,95759.34
2018-12-20T08:23:30.960Z,95759.38
2018-12-20T08:26:05.870Z,95756.80
2018-12-20T08:28:40.311Z,95755.77
2018-12-20T08:31:15.465Z,95760.83
2018-12-20T08:33:49.736Z,95762.53
2018-12-20T08:36:24.762Z,95764.72
2018-12-20T08:38:59.686Z,95771.20
2018-12-20T08:41:34.188Z,95765.50
2018-12-20T08:44:08.770Z,95763.77
2018-12-20T08:46:44.989Z,95768.83
2018-12-20T08:49:19.506Z,95767.01
2018-12-20T08:51:54.202Z,95781.50
2018-12-20T08:54:28.678Z,95781.56
2018-12-20T08:57:04.429Z,95777.09
2018-12-20T08:59:39.217Z,95786.96
2018-12-20T09:02:14.571Z,95786.59
2018-12-20T09:04:49.647Z,95799.79
2018-12-20T09:07:24.510Z,95799.77
2018-12-20T09:09:59.574Z,95805.56
2018-12-20T09:12:34.490Z,95790.58
2018-12-20T09:15:10.099Z,95801.55
2018-12-20T09:17:44.818Z,95799.66
2018-12-20T09:20:19.451Z,95801.98
2018-12-20T09:22:54.492Z,95802.23
2018-12-20T09:25:29.129Z,95809.54
2018-12-20T09:28:03.626Z,95803.06
2018-12-20T09:30:38.318Z,95815.19
2018-12-20T09:33:13.077Z,95808.23
2018-12-20T09:35:48.225Z,95806.58
2018-12-20T09:38:22.757Z,95803.95
2018-12-20T09:40:57.704Z,95799.30
2018-12-20T09:43:32.427Z,95800.16
2018-12-20T09:46:06.971Z,95805.73
2018-12-20T09:48:42.404Z,95806.12
2018-12-20T09:51:17.110Z,95799.17
2018-12-20T09:53:53.006Z,95802.31
2018-12-20T09:56:28.156Z,95797.14
2018-12-20T09:59:03.087Z,95790.05
2018-12-20T10:01:38.454Z,95798.64
2018-12-20T10:04:12.902Z,95791.83
2018-12-20T10:06:47.287Z,95787.89
2018-12-20T10:09:21.677Z,95789.70
2018-12-20T10:11:56.586Z,95788.02
2018-12-20T10:14:31.646Z,95786.24
2018-12-20T10:17:06.032Z,95784.97
2018-12-20T10:19:41.067Z,95782.05
2018-12-20T10:22:15.770Z,95785.04
2018-12-20T10:24:50.151Z,95781.80
2018-12-20T10:27:31.424Z,95786.86
2018-12-20T10:30:01.308Z,95784.08
2018-12-20T10:32:36.305Z,95783.97
2018-12-20T10:35:11.417Z,95780.78
2018-12-20T10:37:46.137Z,95773.23
2018-12-20T10:40:21.309Z,95785.47
2018-12-20T10:42:56.410Z,95776.96
2018-12-20T10:45:31.556Z,95775.12
2018-12-20T10:48:06.794Z,95782.45
2018-12-20T10:50:42.594Z,95785.37
2018-12-20T10:53:17.388Z,95780.38
2018-12-20T10:55:52.242Z,95777.61
2018-12-20T10:58:26.954Z,95778.58
2018-12-20T11:01:06.771Z,95776.91
2018-12-20T11:03:47.827Z,95765.16
2018-12-20T11:06:27.774Z,95767.75
2018-12-20T11:09:08.177Z,95765.33
2018-12-20T11:11:47.911Z,95758.45
2018-12-20T11:14:22.551Z,95753.99
2018-12-20T11:16:57.507Z,95762.89
2018-12-20T11:19:31.828Z,95762.73
2018-12-20T11:22:06.426Z,95758.37
2018-12-20T11:24:41.332Z,95762.73
2018-12-20T11:27:16.222Z,95765.31
2018-12-20T11:29:50.849Z,95766.34
2018-12-20T11:32:25.215Z,95776.20
2018-12-20T11:34:59.490Z,95772.97
2018-12-20T11:37:33.876Z,95771.24
2018-12-20T11:40:09.722Z,95775.12
2018-12-20T11:42:44.662Z,95762.67
2018-12-20T11:45:19.354Z,95771.44
2018-12-20T11:47:54.011Z,95760.12
2018-12-20T11:50:29.178Z,95770.95
2018-12-20T11:53:04.379Z,95764.16
2018-12-20T11:55:39.199Z,95765.66
2018-12-20T11:58:13.499Z,95764.03
2018-12-20T12:00:47.951Z,95755.13
2018-12-20T12:03:22.334Z,95758.88
2018-12-20T12:05:57.595Z,95752.70
2018-12-20T12:08:32.173Z,95760.93
2018-12-20T12:11:07.153Z,95757.53
2018-12-20T12:13:41.854Z,95760.58
2018-12-20T12:16:16.613Z,95762.06
2018-12-20T12:18:50.954Z,95755.30
2018-12-20T12:21:25.827Z,95758.85
2018-12-20T12:24:00.475Z,95758.53
2018-12-20T12:26:37.721Z,95761.93
2018-12-20T12:29:12.845Z,95765.00
2018-12-20T12:31:47.894Z,95756.11
2018-12-20T12:34:23.272Z,95753.65
2018-12-20T12:36:58.183Z,95756.23
2018-12-20T12:39:32.776Z,95765.30
2018-12-20T12:42:07.476Z,95758.02
2018-12-20T12:44:42.575Z,95750.41
2018-12-20T12:47:19.340Z,95753.65
2018-12-20T12:49:54.387Z,95758.39
2018-12-20T12:52:29.043Z,95751.42
2018-12-20T12:55:05.186Z,95751.11
2018-12-20T12:57:39.551Z,95739.61
2018-12-20T13:00:18.522Z,95748.17
2018-12-20T13:02:53.808Z,95745.89
2018-12-20T13:05:29.689Z,95739.52
2018-12-20T13:08:04.931Z,95743.45
2018-12-20T13:10:44.819Z,95749.72
2018-12-20T13:13:19.284Z,95744.39
2018-12-20T13:15:55.295Z,95740.33
2018-12-20T13:18:29.935Z,95744.93
2018-12-20T13:21:05.786Z,95741.05
2018-12-20T13:23:40.506Z,95742.16
2018-12-20T13:26:14.817Z,95750.12
2018-12-20T13:28:49.443Z,95744.95
2018-12-20T13:31:24.531Z,95744.77
2018-12-20T13:33:58.976Z,95748.50
2018-12-20T13:36:33.293Z,95744.83
2018-12-20T13:39:08.698Z,95748.72
2018-12-20T13:41:43.779Z,95748.70
2018-12-20T13:44:18.462Z,95747.30
2018-12-20T13:46:53.494Z,95750.91
2018-12-20T13:49:27.938Z,95757.02
2018-12-20T13:52:02.694Z,95760.34
2018-12-20T13:54:37.000Z,95762.93
2018-12-20T13:57:11.651Z,95763.57
2018-12-20T13:59:46.137Z,95768.61
2018-12-20T14:02:20.789Z,95769.56
2018-12-20T14:04:56.930Z,95775.06
2018-12-20T14:07:31.966Z,95772.97
2018-12-20T14:10:08.670Z,95772.97
2018-12-20T14:12:44.084Z,95781.72
2018-12-20T14:15:18.874Z,95784.63
2018-12-20T14:17:53.712Z,95788.17
2018-12-20T14:20:28.444Z,95786.42
2018-12-20T14:23:03.431Z,95790.95
2018-12-20T14:25:38.659Z,95784.14
2018-12-20T14:28:13.902Z,95790.30
2018-12-20T14:30:49.252Z,95792.06
2018-12-20T14:33:25.107Z,95787.55
2018-12-20T14:36:00.510Z,95787.70
2018-12-20T14:38:35.208Z,95785.11
2018-12-20T14:41:10.447Z,95784.14
2018-12-20T14:43:45.551Z,95776.83
2018-12-20T14:46:20.479Z,95780.91
2018-12-20T14:48:54.904Z,95783.16
2018-12-20T14:51:29.366Z,95792.05
2018-12-20T14:54:04.733Z,95793.16
2018-12-20T14:56:39.439Z,95797.00
2018-12-20T14:59:14.386Z,95801.69
2018-12-20T15:01:48.798Z,95804.28
2018-12-20T15:04:23.248Z,95803.47
2018-12-20T15:06:57.699Z,95806.44
2018-12-20T15:09:32.228Z,95810.97
2018-12-20T15:12:07.458Z,95810.47
2018-12-20T15:14:42.313Z,95815.09
2018-12-20T15:17:16.891Z,95812.27
2018-12-20T15:19:51.553Z,95813.19
2018-12-20T15:22:26.070Z,95806.72
2018-12-20T15:25:01.025Z,95809.04
2018-12-20T15:27:35.810Z,95815.41
2018-12-20T15:30:12.018Z,95822.05
2018-12-20T15:32:46.842Z,95824.22
2018-12-20T15:35:21.766Z,95822.88
2018-12-20T15:37:56.923Z,95821.77
2018-12-20T15:40:31.519Z,95829.77
2018-12-20T15:43:06.446Z,95830.80
2018-12-20T15:45:40.918Z,95837.08
2018-12-20T15:48:17.555Z,95842.06
2018-12-20T15:50:52.162Z,95836.36
2018-12-20T15:53:27.218Z,95844.84
2018-12-20T15:56:02.606Z,95849.69
2018-12-20T15:58:37.622Z,95844.52
2018-12-20T16:01:12.727Z,95846.09
2018-12-20T16:03:47.254Z,95848.67
2018-12-20T16:06:22.219Z,95844.29
2018-12-20T16:08:57.093Z,95845.73
2018-12-20T16:11:32.598Z,95842.16
2018-12-20T16:14:07.023Z,95843.35
2018-12-20T16:16:41.864Z,95844.59
2018-12-20T16:19:16.478Z,95834.57
2018-12-20T16:21:51.091Z,95840.70
2018-12-20T16:24:25.676Z,95843.31
2018-12-20T16:27:01.262Z,95845.77
2018-12-20T16:29:35.681Z,95846.55
2018-12-20T16:32:10.598Z,95843.19
2018-12-20T16:34:45.331Z,95848.20
2018-12-20T16:37:19.912Z,95850.55
2018-12-20T16:39:54.788Z,95849.38
2018-12-20T16:42:29.641Z,95854.39
2018-12-20T16:45:05.711Z,95856.58
2018-12-20T16:47:41.023Z,95857.06
2018-12-20T16:50:16.125Z,95855.52
2018-12-20T16:55:50.711Z,95853.66
2018-12-20T16:58:25.347Z,95851.42
2018-12-20T17:00:59.898Z,95843.20
2018-12-20T17:03:34.230Z,95846.98
2018-12-20T17:06:09.020Z,95852.84
2018-12-20T17:08:48.116Z,95847.96
2018-12-20T17:11:20.594Z,95866.61
2018-12-20T17:13:55.471Z,95862.92
2018-12-20T17:16:30.679Z,95856.10
2018-12-20T17:19:05.010Z,95863.73
2018-12-20T17:21:40.574Z,95860.86
2018-12-20T17:24:18.400Z,95858.91
2018-12-20T17:26:54.764Z,95856.14
2018-12-20T17:29:29.909Z,95862.30
2018-12-20T17:32:05.453Z,95857.91
2018-12-20T17:34:40.238Z,95859.64
2018-12-20T17:37:15.226Z,95859.45
2018-12-20T17:39:50.398Z,95863.55
2018-12-20T17:42:25.951Z,95860.02
2018-12-20T17:45:01.862Z,95859.72
2018-12-20T17:47:37.027Z,95863.92
2018-12-20T17:50:12.247Z,95865.94
2018-12-20T17:52:47.519Z,95879.06
2018-12-20T17:55:23.967Z,95875.55
2018-12-20T17:57:58.601Z,95880.48
2018-12-20T18:00:33.283Z,95886.89
2018-12-20T18:03:08.295Z,95883.45
2018-12-20T18:05:42.753Z,95893.15
2018-12-20T18:08:17.536Z,95888.80
2018-12-20T18:10:52.886Z,95890.11
2018-12-20T18:13:28.726Z,95886.89
2018-12-20T18:16:03.923Z,95894.70
2018-12-20T18:18:38.242Z,95893.22
2018-12-20T18:21:12.679Z,95897.47
2018-12-20T18:23:47.409Z,95898.95
2018-12-20T18:26:22.398Z,95904.53
2018-12-20T18:28:56.671Z,95909.78
2018-12-20T18:31:31.163Z,95910.00
2018-12-20T18:34:16.027Z,95917.16
2018-12-20T18:36:50.918Z,95923.90
2018-12-20T18:39:25.755Z,95926.20
2018-12-20T18:42:00.222Z,95929.87
2018-12-20T18:44:34.646Z,95921.86
2018-12-20T18:47:09.649Z,95906.14
2018-12-20T18:49:47.602Z,95907.93
2018-12-20T18:52:21.760Z,95900.37
2018-12-20T18:54:56.545Z,95898.91
2018-12-20T18:57:31.265Z,95900.45
2018-12-20T19:00:09.234Z,95902.36
2018-12-20T19:02:55.675Z,95909.41
2018-12-20T19:11:23.088Z,95918.48
2018-12-20T19:13:59.034Z,95925.57
2018-12-20T19:16:33.870Z,95926.70
2018-12-20T19:19:17.537Z,95913.52
2018-12-20T19:21:52.444Z,95913.77
2018-12-20T19:24:26.825Z,95911.94
2018-12-20T19:27:01.366Z,95906.45
2018-12-20T19:29:36.471Z,95912.24
2018-12-20T19:32:11.434Z,95917.06
2018-12-20T19:34:45.919Z,95915.83
2018-12-20T19:37:20.991Z,95921.05
2018-12-20T19:40:00.889Z,95921.00
2018-12-20T19:42:36.431Z,95930.73
2018-12-20T19:45:11.358Z,95929.34
2018-12-20T19:47:46.010Z,95931.69
2018-12-20T19:50:21.906Z,95931.75
2018-12-20T19:52:57.005Z,95934.75
2018-12-20T19:55:31.726Z,95931.00
2018-12-20T19:58:06.883Z,95928.41
2018-12-20T20:00:41.551Z,95930.73
2018-12-20T20:03:16.329Z,95932.61
2018-12-20T20:05:51.722Z,95927.73
2018-12-20T20:08:30.598Z,95922.70
2018-12-20T20:11:06.260Z,95938.80
2018-12-20T20:13:40.603Z,95941.13
2018-12-20T20:16:15.069Z,95935.97
2018-12-20T20:18:49.914Z,95940.88
2018-12-20T20:21:24.586Z,95937.80
2018-12-20T20:23:58.871Z,95941.04
2018-12-20T20:26:34.767Z,95942.14
2018-12-20T20:29:11.667Z,95949.19
2018-12-20T20:31:46.416Z,95943.54
2018-12-20T20:34:21.298Z,95947.70
2018-12-20T20:36:56.230Z,95951.25
2018-12-20T20:39:31.956Z,95943.69
2018-12-20T20:42:07.261Z,95943.98
2018-12-20T20:44:42.092Z,95950.47
2018-12-20T20:47:16.634Z,95947.70
2018-12-20T20:49:53.405Z,95955.45
2018-12-20T20:52:28.658Z,95949.41
2018-12-20T20:55:08.755Z,95957.48
2018-12-20T20:57:51.908Z,95957.88
2018-12-20T21:00:26.905Z,95958.59
2018-12-20T21:03:05.328Z,95954.68
2018-12-20T21:05:43.247Z,95962.64
2018-12-20T21:08:20.069Z,95967.80
2018-12-20T21:10:58.462Z,95971.13
2018-12-20T21:13:46.006Z,95960.36
2018-12-20T21:16:20.571Z,95967.30
2018-12-20T21:18:59.942Z,95970.50
2018-12-20T21:21:38.069Z,95970.64
2018-12-20T21:24:26.714Z,95971.27
2018-12-20T21:27:01.052Z,95968.50
2018-12-20T21:29:48.966Z,95971.27
2018-12-20T21:32:23.967Z,95975.30
2018-12-20T21:35:02.745Z,95973.95
2018-12-20T21:37:39.014Z,95981.22
2018-12-20T21:43:16.101Z,95974.59
2018-12-20T21:46:05.632Z,95972.59
2018-12-20T21:48:46.098Z,95972.78
2018-12-20T21:51:32.957Z,95977.56
2018-12-20T21:54:14.182Z,95978.63
2018-12-20T21:56:52.859Z,95980.81
2018-12-20T21:59:46.023Z,95981.91
2018-12-20T22:02:26.764Z,95987.78
2018-12-20T22:05:03.963Z,95987.92
2018-12-20T22:07:41.523Z,95990.98
2018-12-20T22:10:19.016Z,95985.88
2018-12-20T22:13:00.561Z,95991.37
2018-12-20T22:21:31.611Z,95989.30
2018-12-20T22:24:28.137Z,96000.27
2018-12-20T22:27:27.153Z,96004.80
2018-12-20T22:30:14.380Z,96001.72
2018-12-20T22:32:56.797Z,96002.98
2018-12-20T22:35:35.934Z,95995.45
2018-12-20T22:38:31.619Z,96003.72
2018-12-20T22:41:08.113Z,96000.84
2018-12-20T22:43:47.095Z,96005.01
2018-12-20T22:46:25.065Z,96007.56
2018-12-20T22:49:05.919Z,96012.50
2018-12-20T22:51:40.427Z,96013.56
2018-12-20T22:54:16.911Z,96008.92
2018-12-20T22:56:54.768Z,96011.09
2018-12-20T22:59:38.347Z,96005.66
2018-12-20T23:02:18.457Z,96008.14
2018-12-20T23:04:55.650Z,96006.91
2018-12-20T23:07:37.146Z,96007.92
2018-12-20T23:10:21.559Z,95996.17
2018-12-20T23:13:02.578Z,95996.55
2018-12-20T23:15:43.487Z,95995.58
2018-12-20T23:18:25.096Z,95996.51
2018-12-20T23:21:06.058Z,95990.73
2018-12-20T23:23:40.759Z,95992.17
2018-12-20T23:26:15.912Z,95995.86
2018-12-20T23:28:50.301Z,95989.41
2018-12-20T23:31:25.135Z,95989.12
2018-12-20T23:34:00.091Z,95992.60
2018-12-20T23:36:34.485Z,95989.41
2018-12-20T23:39:09.526Z,95998.09
2018-12-20T23:41:44.505Z,96001.14
2018-12-20T23:44:19.181Z,95996.54
2018-12-20T23:46:53.671Z,95996.80
2018-12-20T23:49:28.107Z,95994.22
2018-12-20T23:52:02.727Z,95990.78
2018-12-20T23:54:37.573Z,95990.63
2018-12-20T23:57:12.365Z,95995.53
2018-12-20T23:59:47.439Z,95993.89
